sensor_id;sensor_type;location;lat;lon;timestamp;temperature;humidity
12408;DHT22;6268;48.188;17.134;2022-09-01T00:02:32;20.10;99.90
12408;DHT22;6268;48.188;17.134;2022-09-01T00:05:03;20.10;99.90
12408;DHT22;6268;48.188;17.134;2022-09-01T00:07:35;20.10;99.90
12408;DHT22;6268;48.188;17.134;2022-09-01T00:10:06;20.20;99.90
12408;DHT22;6268;48.188;17.134;2022-09-01T00:12:36;20.20;99.90
12408;DHT22;6268;48.188;17.134;2022-09-01T00:15:08;20.20;99.90
12408;DHT22;6268;48.188;17.134;2022-09-01T00:17:38;20.10;99.90
12408;DHT22;6268;48.188;17.134;2022-09-01T00:20:07;20.10;99.90
12408;DHT22;6268;48.188;17.134;2022-09-01T00:22:38;20.10;99.90
12408;DHT22;6268;48.188;17.134;2022-09-01T00:25:08;20.10;99.90
12408;DHT22;6268;48.188;17.134;2022-09-01T00:27:36;20.00;99.90
12408;DHT22;6268;48.188;17.134;2022-09-01T00:30:06;20.00;99.90
12408;DHT22;6268;48.188;17.134;2022-09-01T00:32:36;20.00;99.90
12408;DHT22;6268;48.188;17.134;2022-09-01T00:35:05;20.00;99.90
12408;DHT22;6268;48.188;17.134;2022-09-01T00:37:34;20.00;99.90
12408;DHT22;6268;48.188;17.134;2022-09-01T00:40:06;20.00;99.90
12408;DHT22;6268;48.188;17.134;2022-09-01T00:42:38;20.00;99.90
12408;DHT22;6268;48.188;17.134;2022-09-01T00:45:08;20.00;99.90
12408;DHT22;6268;48.188;17.134;2022-09-01T00:47:37;20.00;99.90
12408;DHT22;6268;48.188;17.134;2022-09-01T00:50:09;20.00;99.90
12408;DHT22;6268;48.188;17.134;2022-09-01T00:52:42;19.90;99.90
12408;DHT22;6268;48.188;17.134;2022-09-01T00:55:18;19.90;99.90
12408;DHT22;6268;48.188;17.134;2022-09-01T00:57:50;19.80;99.90
12408;DHT22;6268;48.188;17.134;2022-09-01T01:00:22;19.80;99.90
12408;DHT22;6268;48.188;17.134;2022-09-01T01:02:53;19.80;99.90
12408;DHT22;6268;48.188;17.134;2022-09-01T01:05:23;19.80;99.90
12408;DHT22;6268;48.188;17.134;2022-09-01T01:07:55;19.80;99.90
12408;DHT22;6268;48.188;17.134;2022-09-01T01:10:25;19.80;99.90
12408;DHT22;6268;48.188;17.134;2022-09-01T01:13:06;19.70;99.90
12408;DHT22;6268;48.188;17.134;2022-09-01T01:15:36;19.50;99.90
12408;DHT22;6268;48.188;17.134;2022-09-01T01:18:05;19.60;99.90
12408;DHT22;6268;48.188;17.134;2022-09-01T01:20:34;19.50;99.90
12408;DHT22;6268;48.188;17.134;2022-09-01T01:23:25;19.50;99.90
12408;DHT22;6268;48.188;17.134;2022-09-01T01:26:07;19.50;99.90
12408;DHT22;6268;48.188;17.134;2022-09-01T01:28:39;19.50;99.90
12408;DHT22;6268;48.188;17.134;2022-09-01T01:31:12;19.40;99.90
12408;DHT22;6268;48.188;17.134;2022-09-01T01:33:47;19.40;99.90
12408;DHT22;6268;48.188;17.134;2022-09-01T01:36:20;19.50;99.90
12408;DHT22;6268;48.188;17.134;2022-09-01T01:39:00;19.50;99.90
12408;DHT22;6268;48.188;17.134;2022-09-01T01:41:35;19.50;99.90
12408;DHT22;6268;48.188;17.134;2022-09-01T01:44:07;19.50;99.90
12408;DHT22;6268;48.188;17.134;2022-09-01T01:46:41;19.50;99.90
12408;DHT22;6268;48.188;17.134;2022-09-01T01:49:11;19.60;99.90
12408;DHT22;6268;48.188;17.134;2022-09-01T01:51:40;19.60;99.90
12408;DHT22;6268;48.188;17.134;2022-09-01T01:54:10;19.60;99.90
12408;DHT22;6268;48.188;17.134;2022-09-01T01:56:40;19.60;99.90
12408;DHT22;6268;48.188;17.134;2022-09-01T01:59:09;19.50;99.90
12408;DHT22;6268;48.188;17.134;2022-09-01T02:01:42;19.50;99.90
12408;DHT22;6268;48.188;17.134;2022-09-01T02:04:18;19.50;99.90
12408;DHT22;6268;48.188;17.134;2022-09-01T02:06:48;19.40;99.90
12408;DHT22;6268;48.188;17.134;2022-09-01T02:09:19;19.40;99.90
12408;DHT22;6268;48.188;17.134;2022-09-01T02:11:51;19.50;99.90
12408;DHT22;6268;48.188;17.134;2022-09-01T02:14:23;19.50;99.90
12408;DHT22;6268;48.188;17.134;2022-09-01T02:16:52;19.50;99.90
12408;DHT22;6268;48.188;17.134;2022-09-01T02:19:22;19.50;99.90
12408;DHT22;6268;48.188;17.134;2022-09-01T02:21:51;19.50;99.90
12408;DHT22;6268;48.188;17.134;2022-09-01T02:24:22;19.50;99.90
12408;DHT22;6268;48.188;17.134;2022-09-01T02:26:53;19.50;99.90
12408;DHT22;6268;48.188;17.134;2022-09-01T02:29:26;19.50;99.90
12408;DHT22;6268;48.188;17.134;2022-09-01T02:31:59;19.50;99.90
12408;DHT22;6268;48.188;17.134;2022-09-01T02:34:28;19.50;99.90
12408;DHT22;6268;48.188;17.134;2022-09-01T02:36:57;19.50;99.90
12408;DHT22;6268;48.188;17.134;2022-09-01T02:39:28;19.40;99.90
12408;DHT22;6268;48.188;17.134;2022-09-01T02:42:01;19.40;99.90
12408;DHT22;6268;48.188;17.134;2022-09-01T02:44:29;19.50;99.90
12408;DHT22;6268;48.188;17.134;2022-09-01T02:46:58;19.50;99.90
12408;DHT22;6268;48.188;17.134;2022-09-01T02:49:28;19.50;99.90
12408;DHT22;6268;48.188;17.134;2022-09-01T02:51:58;19.50;99.90
12408;DHT22;6268;48.188;17.134;2022-09-01T02:54:30;19.50;99.90
12408;DHT22;6268;48.188;17.134;2022-09-01T02:57:01;19.50;99.90
12408;DHT22;6268;48.188;17.134;2022-09-01T02:59:30;19.30;99.90
12408;DHT22;6268;48.188;17.134;2022-09-01T03:02:01;19.20;99.90
12408;DHT22;6268;48.188;17.134;2022-09-01T03:04:29;19.20;99.90
12408;DHT22;6268;48.188;17.134;2022-09-01T03:07:01;19.10;99.90
12408;DHT22;6268;48.188;17.134;2022-09-01T03:09:30;19.10;99.90
12408;DHT22;6268;48.188;17.134;2022-09-01T03:12:03;19.10;99.90
12408;DHT22;6268;48.188;17.134;2022-09-01T03:14:33;19.10;99.90
12408;DHT22;6268;48.188;17.134;2022-09-01T03:17:02;19.10;99.90
12408;DHT22;6268;48.188;17.134;2022-09-01T03:19:31;19.10;99.90
12408;DHT22;6268;48.188;17.134;2022-09-01T03:22:10;19.10;99.90
12408;DHT22;6268;48.188;17.134;2022-09-01T03:24:39;19.10;99.90
12408;DHT22;6268;48.188;17.134;2022-09-01T03:27:09;19.10;99.90
12408;DHT22;6268;48.188;17.134;2022-09-01T03:29:37;19.00;99.90
12408;DHT22;6268;48.188;17.134;2022-09-01T03:32:06;19.00;99.90
12408;DHT22;6268;48.188;17.134;2022-09-01T03:34:35;19.00;99.90
12408;DHT22;6268;48.188;17.134;2022-09-01T03:37:04;19.00;99.90
12408;DHT22;6268;48.188;17.134;2022-09-01T03:39:34;19.00;99.90
12408;DHT22;6268;48.188;17.134;2022-09-01T03:42:03;18.90;99.90
12408;DHT22;6268;48.188;17.134;2022-09-01T03:44:36;19.00;99.90
12408;DHT22;6268;48.188;17.134;2022-09-01T03:47:06;18.90;99.90
12408;DHT22;6268;48.188;17.134;2022-09-01T03:49:41;18.90;99.90
12408;DHT22;6268;48.188;17.134;2022-09-01T03:52:11;18.90;99.90
12408;DHT22;6268;48.188;17.134;2022-09-01T03:54:40;19.00;99.90
12408;DHT22;6268;48.188;17.134;2022-09-01T03:57:10;19.00;99.90
12408;DHT22;6268;48.188;17.134;2022-09-01T03:59:41;19.00;99.90
12408;DHT22;6268;48.188;17.134;2022-09-01T04:02:11;19.00;99.90
12408;DHT22;6268;48.188;17.134;2022-09-01T04:04:41;18.90;99.90
12408;DHT22;6268;48.188;17.134;2022-09-01T04:07:10;18.90;99.90
12408;DHT22;6268;48.188;17.134;2022-09-01T04:09:45;18.90;99.90
12408;DHT22;6268;48.188;17.134;2022-09-01T04:12:13;19.00;99.90
12408;DHT22;6268;48.188;17.134;2022-09-01T04:14:44;18.90;99.90
12408;DHT22;6268;48.188;17.134;2022-09-01T04:17:14;19.00;99.90
12408;DHT22;6268;48.188;17.134;2022-09-01T04:20:01;19.00;99.90
12408;DHT22;6268;48.188;17.134;2022-09-01T04:22:34;19.00;99.90
12408;DHT22;6268;48.188;17.134;2022-09-01T04:25:05;19.00;99.90
12408;DHT22;6268;48.188;17.134;2022-09-01T04:27:34;19.00;99.90
12408;DHT22;6268;48.188;17.134;2022-09-01T04:30:09;19.00;99.90
12408;DHT22;6268;48.188;17.134;2022-09-01T04:32:38;19.00;99.90
12408;DHT22;6268;48.188;17.134;2022-09-01T04:35:10;19.00;99.90
12408;DHT22;6268;48.188;17.134;2022-09-01T04:37:43;19.00;99.90
12408;DHT22;6268;48.188;17.134;2022-09-01T04:40:13;19.00;99.90
12408;DHT22;6268;48.188;17.134;2022-09-01T04:42:43;19.00;99.90
12408;DHT22;6268;48.188;17.134;2022-09-01T04:45:13;19.00;99.90
12408;DHT22;6268;48.188;17.134;2022-09-01T04:47:47;19.00;99.90
12408;DHT22;6268;48.188;17.134;2022-09-01T04:50:15;19.00;99.90
12408;DHT22;6268;48.188;17.134;2022-09-01T04:52:45;19.00;99.90
12408;DHT22;6268;48.188;17.134;2022-09-01T04:55:14;19.00;99.90
12408;DHT22;6268;48.188;17.134;2022-09-01T04:57:45;19.00;99.90
12408;DHT22;6268;48.188;17.134;2022-09-01T05:00:20;19.00;99.90
12408;DHT22;6268;48.188;17.134;2022-09-01T05:02:51;19.00;99.90
12408;DHT22;6268;48.188;17.134;2022-09-01T05:05:22;19.10;99.90
12408;DHT22;6268;48.188;17.134;2022-09-01T05:07:50;19.10;99.90
12408;DHT22;6268;48.188;17.134;2022-09-01T05:10:22;19.10;99.90
12408;DHT22;6268;48.188;17.134;2022-09-01T05:12:56;19.30;99.90
12408;DHT22;6268;48.188;17.134;2022-09-01T05:15:26;19.70;99.90
12408;DHT22;6268;48.188;17.134;2022-09-01T05:17:56;20.30;99.90
12408;DHT22;6268;48.188;17.134;2022-09-01T05:20:37;21.10;99.90
12408;DHT22;6268;48.188;17.134;2022-09-01T05:23:10;21.90;99.90
12408;DHT22;6268;48.188;17.134;2022-09-01T05:25:41;22.50;99.90
12408;DHT22;6268;48.188;17.134;2022-09-01T05:28:11;23.10;99.90
12408;DHT22;6268;48.188;17.134;2022-09-01T05:30:41;23.60;99.90
12408;DHT22;6268;48.188;17.134;2022-09-01T05:33:12;24.00;99.90
12408;DHT22;6268;48.188;17.134;2022-09-01T05:35:52;24.30;99.90
12408;DHT22;6268;48.188;17.134;2022-09-01T05:38:23;24.60;99.90
12408;DHT22;6268;48.188;17.134;2022-09-01T05:40:56;24.70;99.90
12408;DHT22;6268;48.188;17.134;2022-09-01T05:43:28;24.80;99.30
12408;DHT22;6268;48.188;17.134;2022-09-01T05:45:59;25.10;99.20
12408;DHT22;6268;48.188;17.134;2022-09-01T05:48:33;25.30;97.30
12408;DHT22;6268;48.188;17.134;2022-09-01T05:51:07;25.40;97.20
12408;DHT22;6268;48.188;17.134;2022-09-01T05:53:57;25.40;95.50
12408;DHT22;6268;48.188;17.134;2022-09-01T05:56:27;25.50;93.30
12408;DHT22;6268;48.188;17.134;2022-09-01T05:58:59;25.90;91.70
12408;DHT22;6268;48.188;17.134;2022-09-01T06:01:50;26.10;91.40
12408;DHT22;6268;48.188;17.134;2022-09-01T06:04:21;26.40;90.10
12408;DHT22;6268;48.188;17.134;2022-09-01T06:06:52;26.70;87.40
12408;DHT22;6268;48.188;17.134;2022-09-01T06:09:36;27.10;83.80
12408;DHT22;6268;48.188;17.134;2022-09-01T06:12:06;27.50;80.70
12408;DHT22;6268;48.188;17.134;2022-09-01T06:14:35;27.90;76.70
12408;DHT22;6268;48.188;17.134;2022-09-01T06:17:05;28.30;75.50
12408;DHT22;6268;48.188;17.134;2022-09-01T06:19:36;28.70;73.00
12408;DHT22;6268;48.188;17.134;2022-09-01T06:22:05;28.90;73.40
12408;DHT22;6268;48.188;17.134;2022-09-01T06:24:37;29.10;74.90
12408;DHT22;6268;48.188;17.134;2022-09-01T06:27:09;29.30;73.80
12408;DHT22;6268;48.188;17.134;2022-09-01T06:29:38;29.50;73.20
12408;DHT22;6268;48.188;17.134;2022-09-01T06:32:09;29.70;72.10
12408;DHT22;6268;48.188;17.134;2022-09-01T06:34:40;29.60;72.30
12408;DHT22;6268;48.188;17.134;2022-09-01T06:37:11;29.30;73.60
12408;DHT22;6268;48.188;17.134;2022-09-01T06:39:40;29.40;72.50
12408;DHT22;6268;48.188;17.134;2022-09-01T06:42:09;29.70;72.00
12408;DHT22;6268;48.188;17.134;2022-09-01T06:44:39;29.90;70.20
12408;DHT22;6268;48.188;17.134;2022-09-01T06:47:09;30.10;69.40
12408;DHT22;6268;48.188;17.134;2022-09-01T06:49:38;30.30;67.90
12408;DHT22;6268;48.188;17.134;2022-09-01T06:52:07;30.60;66.50
12408;DHT22;6268;48.188;17.134;2022-09-01T06:54:37;31.10;64.80
12408;DHT22;6268;48.188;17.134;2022-09-01T06:57:10;31.20;62.80
12408;DHT22;6268;48.188;17.134;2022-09-01T06:59:59;31.00;63.30
12408;DHT22;6268;48.188;17.134;2022-09-01T07:02:34;30.80;62.40
12408;DHT22;6268;48.188;17.134;2022-09-01T07:05:06;31.00;62.00
12408;DHT22;6268;48.188;17.134;2022-09-01T07:07:55;31.20;61.30
12408;DHT22;6268;48.188;17.134;2022-09-01T07:10:32;31.40;59.70
12408;DHT22;6268;48.188;17.134;2022-09-01T07:13:21;31.70;59.30
12408;DHT22;6268;48.188;17.134;2022-09-01T07:15:53;32.20;58.10
12408;DHT22;6268;48.188;17.134;2022-09-01T07:18:45;32.60;57.20
12408;DHT22;6268;48.188;17.134;2022-09-01T07:21:25;33.20;55.50
12408;DHT22;6268;48.188;17.134;2022-09-01T07:24:09;33.60;54.00
12408;DHT22;6268;48.188;17.134;2022-09-01T07:26:40;33.80;53.00
12408;DHT22;6268;48.188;17.134;2022-09-01T07:29:29;34.10;52.80
12408;DHT22;6268;48.188;17.134;2022-09-01T07:31:57;34.10;51.30
12408;DHT22;6268;48.188;17.134;2022-09-01T07:34:48;33.70;51.50
12408;DHT22;6268;48.188;17.134;2022-09-01T07:37:19;34.00;49.60
12408;DHT22;6268;48.188;17.134;2022-09-01T07:40:11;34.10;47.20
12408;DHT22;6268;48.188;17.134;2022-09-01T07:43:02;34.00;45.40
12408;DHT22;6268;48.188;17.134;2022-09-01T07:45:35;33.60;46.50
12408;DHT22;6268;48.188;17.134;2022-09-01T07:48:13;33.70;46.10
12408;DHT22;6268;48.188;17.134;2022-09-01T07:51:10;33.80;45.30
12408;DHT22;6268;48.188;17.134;2022-09-01T07:54:00;33.90;44.50
12408;DHT22;6268;48.188;17.134;2022-09-01T07:56:29;33.60;44.90
12408;DHT22;6268;48.188;17.134;2022-09-01T07:59:03;33.20;44.80
12408;DHT22;6268;48.188;17.134;2022-09-01T08:01:32;33.40;45.40
12408;DHT22;6268;48.188;17.134;2022-09-01T08:04:02;33.90;44.30
12408;DHT22;6268;48.188;17.134;2022-09-01T08:06:33;34.20;43.90
12408;DHT22;6268;48.188;17.134;2022-09-01T08:09:05;33.10;44.00
12408;DHT22;6268;48.188;17.134;2022-09-01T08:11:38;32.00;45.70
12408;DHT22;6268;48.188;17.134;2022-09-01T08:14:28;31.70;47.90
12408;DHT22;6268;48.188;17.134;2022-09-01T08:17:00;30.40;47.00
12408;DHT22;6268;48.188;17.134;2022-09-01T08:19:50;29.50;49.70
12408;DHT22;6268;48.188;17.134;2022-09-01T08:22:21;29.30;50.90
12408;DHT22;6268;48.188;17.134;2022-09-01T08:24:52;28.90;51.20
12408;DHT22;6268;48.188;17.134;2022-09-01T08:27:21;28.90;50.50
12408;DHT22;6268;48.188;17.134;2022-09-01T08:29:50;29.10;51.60
12408;DHT22;6268;48.188;17.134;2022-09-01T08:32:18;29.40;49.70
12408;DHT22;6268;48.188;17.134;2022-09-01T08:34:48;29.80;50.10
12408;DHT22;6268;48.188;17.134;2022-09-01T08:37:17;29.70;49.00
12408;DHT22;6268;48.188;17.134;2022-09-01T08:39:48;29.30;49.30
12408;DHT22;6268;48.188;17.134;2022-09-01T08:42:23;29.40;49.90
12408;DHT22;6268;48.188;17.134;2022-09-01T08:45:10;29.50;49.20
12408;DHT22;6268;48.188;17.134;2022-09-01T08:47:44;29.90;49.30
12408;DHT22;6268;48.188;17.134;2022-09-01T08:50:34;30.90;48.70
12408;DHT22;6268;48.188;17.134;2022-09-01T08:53:10;31.00;47.50
12408;DHT22;6268;48.188;17.134;2022-09-01T08:55:52;31.80;46.80
12408;DHT22;6268;48.188;17.134;2022-09-01T08:58:26;31.90;45.20
12408;DHT22;6268;48.188;17.134;2022-09-01T09:01:00;31.30;46.40
12408;DHT22;6268;48.188;17.134;2022-09-01T09:03:40;31.60;46.10
12408;DHT22;6268;48.188;17.134;2022-09-01T09:06:20;31.50;46.30
12408;DHT22;6268;48.188;17.134;2022-09-01T09:08:57;31.70;47.30
12408;DHT22;6268;48.188;17.134;2022-09-01T09:11:57;32.10;48.50
12408;DHT22;6268;48.188;17.134;2022-09-01T09:14:44;32.20;48.60
12408;DHT22;6268;48.188;17.134;2022-09-01T09:17:29;32.50;48.00
12408;DHT22;6268;48.188;17.134;2022-09-01T09:20:04;32.40;47.20
12408;DHT22;6268;48.188;17.134;2022-09-01T09:22:35;32.10;47.70
12408;DHT22;6268;48.188;17.134;2022-09-01T09:25:07;32.40;46.20
12408;DHT22;6268;48.188;17.134;2022-09-01T09:27:41;32.30;46.00
12408;DHT22;6268;48.188;17.134;2022-09-01T09:30:13;32.10;44.80
12408;DHT22;6268;48.188;17.134;2022-09-01T09:32:50;31.00;44.90
12408;DHT22;6268;48.188;17.134;2022-09-01T09:35:42;30.00;48.20
12408;DHT22;6268;48.188;17.134;2022-09-01T09:38:20;29.90;47.20
12408;DHT22;6268;48.188;17.134;2022-09-01T09:41:00;29.50;47.20
12408;DHT22;6268;48.188;17.134;2022-09-01T09:43:55;29.00;48.10
12408;DHT22;6268;48.188;17.134;2022-09-01T09:46:32;29.00;47.50
12408;DHT22;6268;48.188;17.134;2022-09-01T09:49:09;29.10;48.80
12408;DHT22;6268;48.188;17.134;2022-09-01T09:52:15;29.40;47.80
12408;DHT22;6268;48.188;17.134;2022-09-01T09:55:15;29.50;48.70
12408;DHT22;6268;48.188;17.134;2022-09-01T09:57:49;29.50;47.80
12408;DHT22;6268;48.188;17.134;2022-09-01T10:00:23;28.90;47.60
12408;DHT22;6268;48.188;17.134;2022-09-01T10:02:56;28.90;48.70
12408;DHT22;6268;48.188;17.134;2022-09-01T10:05:39;28.90;48.10
12408;DHT22;6268;48.188;17.134;2022-09-01T10:08:11;29.00;46.90
12408;DHT22;6268;48.188;17.134;2022-09-01T10:11:00;28.30;47.80
12408;DHT22;6268;48.188;17.134;2022-09-01T10:13:30;27.60;48.00
12408;DHT22;6268;48.188;17.134;2022-09-01T10:16:06;27.40;50.00
12408;DHT22;6268;48.188;17.134;2022-09-01T10:18:40;27.60;49.60
12408;DHT22;6268;48.188;17.134;2022-09-01T10:21:15;27.80;48.60
12408;DHT22;6268;48.188;17.134;2022-09-01T10:23:50;28.10;48.50
12408;DHT22;6268;48.188;17.134;2022-09-01T10:26:24;27.60;48.40
12408;DHT22;6268;48.188;17.134;2022-09-01T10:29:03;27.70;49.10
12408;DHT22;6268;48.188;17.134;2022-09-01T10:31:40;28.10;49.30
12408;DHT22;6268;48.188;17.134;2022-09-01T10:34:13;28.20;47.70
12408;DHT22;6268;48.188;17.134;2022-09-01T10:36:47;27.40;48.60
12408;DHT22;6268;48.188;17.134;2022-09-01T10:39:22;27.00;49.40
12408;DHT22;6268;48.188;17.134;2022-09-01T10:41:57;26.70;50.10
12408;DHT22;6268;48.188;17.134;2022-09-01T10:44:34;26.30;50.40
12408;DHT22;6268;48.188;17.134;2022-09-01T10:47:10;26.30;50.60
12408;DHT22;6268;48.188;17.134;2022-09-01T10:50:01;26.30;51.30
12408;DHT22;6268;48.188;17.134;2022-09-01T10:56:07;26.30;50.50
12408;DHT22;6268;48.188;17.134;2022-09-01T10:59:05;26.10;50.70
12408;DHT22;6268;48.188;17.134;2022-09-01T11:02:07;26.20;51.40
12408;DHT22;6268;48.188;17.134;2022-09-01T11:05:15;26.90;50.50
12408;DHT22;6268;48.188;17.134;2022-09-01T11:07:44;27.60;49.70
12408;DHT22;6268;48.188;17.134;2022-09-01T11:10:37;28.10;49.10
12408;DHT22;6268;48.188;17.134;2022-09-01T11:13:33;28.00;47.90
12408;DHT22;6268;48.188;17.134;2022-09-01T11:16:25;27.40;48.30
12408;DHT22;6268;48.188;17.134;2022-09-01T11:25:35;27.50;49.00
12408;DHT22;6268;48.188;17.134;2022-09-01T11:28:38;27.90;48.40
12408;DHT22;6268;48.188;17.134;2022-09-01T11:31:31;27.80;50.40
12408;DHT22;6268;48.188;17.134;2022-09-01T11:34:14;27.40;49.50
12408;DHT22;6268;48.188;17.134;2022-09-01T11:36:51;27.20;49.50
12408;DHT22;6268;48.188;17.134;2022-09-01T11:39:45;27.40;48.80
12408;DHT22;6268;48.188;17.134;2022-09-01T11:42:18;27.60;47.80
12408;DHT22;6268;48.188;17.134;2022-09-01T11:44:57;27.60;48.90
12408;DHT22;6268;48.188;17.134;2022-09-01T11:47:32;27.70;48.80
12408;DHT22;6268;48.188;17.134;2022-09-01T11:50:06;27.80;49.30
12408;DHT22;6268;48.188;17.134;2022-09-01T11:52:54;28.00;48.50
12408;DHT22;6268;48.188;17.134;2022-09-01T11:55:33;28.10;47.80
12408;DHT22;6268;48.188;17.134;2022-09-01T11:58:04;28.30;48.10
12408;DHT22;6268;48.188;17.134;2022-09-01T12:00:36;28.40;48.00
12408;DHT22;6268;48.188;17.134;2022-09-01T12:03:19;28.20;48.70
12408;DHT22;6268;48.188;17.134;2022-09-01T12:05:53;28.00;47.80
12408;DHT22;6268;48.188;17.134;2022-09-01T12:08:28;28.10;48.40
12408;DHT22;6268;48.188;17.134;2022-09-01T12:11:03;28.10;48.60
12408;DHT22;6268;48.188;17.134;2022-09-01T12:13:35;28.30;48.50
12408;DHT22;6268;48.188;17.134;2022-09-01T12:16:06;28.40;48.20
12408;DHT22;6268;48.188;17.134;2022-09-01T12:18:47;28.20;48.20
12408;DHT22;6268;48.188;17.134;2022-09-01T12:21:20;27.90;48.20
12408;DHT22;6268;48.188;17.134;2022-09-01T12:23:53;27.70;48.10
12408;DHT22;6268;48.188;17.134;2022-09-01T12:26:24;27.40;49.40
12408;DHT22;6268;48.188;17.134;2022-09-01T12:28:56;27.20;50.50
12408;DHT22;6268;48.188;17.134;2022-09-01T12:31:25;27.10;52.10
12408;DHT22;6268;48.188;17.134;2022-09-01T12:33:55;27.20;52.60
12408;DHT22;6268;48.188;17.134;2022-09-01T12:36:25;27.30;52.70
12408;DHT22;6268;48.188;17.134;2022-09-01T12:39:18;27.30;52.60
12408;DHT22;6268;48.188;17.134;2022-09-01T12:42:11;27.30;52.60
12408;DHT22;6268;48.188;17.134;2022-09-01T12:44:51;27.30;52.00
12408;DHT22;6268;48.188;17.134;2022-09-01T12:47:47;27.30;51.70
12408;DHT22;6268;48.188;17.134;2022-09-01T12:50:36;27.20;51.50
12408;DHT22;6268;48.188;17.134;2022-09-01T12:53:20;27.10;51.90
12408;DHT22;6268;48.188;17.134;2022-09-01T12:56:20;27.00;52.30
12408;DHT22;6268;48.188;17.134;2022-09-01T12:59:05;26.90;52.90
12408;DHT22;6268;48.188;17.134;2022-09-01T13:01:43;26.80;53.30
12408;DHT22;6268;48.188;17.134;2022-09-01T13:04:19;26.70;53.40
12408;DHT22;6268;48.188;17.134;2022-09-01T13:06:53;26.70;53.40
12408;DHT22;6268;48.188;17.134;2022-09-01T13:09:23;26.60;53.30
12408;DHT22;6268;48.188;17.134;2022-09-01T13:12:08;26.70;53.70
12408;DHT22;6268;48.188;17.134;2022-09-01T13:14:38;26.80;53.30
12408;DHT22;6268;48.188;17.134;2022-09-01T13:17:07;26.80;53.00
12408;DHT22;6268;48.188;17.134;2022-09-01T13:19:40;26.80;53.00
12408;DHT22;6268;48.188;17.134;2022-09-01T13:22:09;26.80;52.90
12408;DHT22;6268;48.188;17.134;2022-09-01T13:24:38;26.70;52.80
12408;DHT22;6268;48.188;17.134;2022-09-01T13:27:08;26.70;53.20
12408;DHT22;6268;48.188;17.134;2022-09-01T13:29:47;26.70;53.70
12408;DHT22;6268;48.188;17.134;2022-09-01T13:32:18;26.80;53.90
12408;DHT22;6268;48.188;17.134;2022-09-01T13:34:50;26.80;54.20
12408;DHT22;6268;48.188;17.134;2022-09-01T13:37:21;26.80;54.10
12408;DHT22;6268;48.188;17.134;2022-09-01T13:39:50;26.80;54.30
12408;DHT22;6268;48.188;17.134;2022-09-01T13:42:21;26.70;54.10
12408;DHT22;6268;48.188;17.134;2022-09-01T13:44:54;26.70;54.40
12408;DHT22;6268;48.188;17.134;2022-09-01T13:47:23;26.60;54.00
12408;DHT22;6268;48.188;17.134;2022-09-01T13:49:56;26.40;53.80
12408;DHT22;6268;48.188;17.134;2022-09-01T13:52:48;26.30;54.30
12408;DHT22;6268;48.188;17.134;2022-09-01T13:55:23;26.40;54.90
12408;DHT22;6268;48.188;17.134;2022-09-01T13:57:56;26.40;54.50
12408;DHT22;6268;48.188;17.134;2022-09-01T14:00:27;26.40;54.70
12408;DHT22;6268;48.188;17.134;2022-09-01T14:03:00;26.50;54.90
12408;DHT22;6268;48.188;17.134;2022-09-01T14:05:34;26.50;55.10
12408;DHT22;6268;48.188;17.134;2022-09-01T14:08:06;26.50;55.20
12408;DHT22;6268;48.188;17.134;2022-09-01T14:10:38;26.40;55.70
12408;DHT22;6268;48.188;17.134;2022-09-01T14:13:10;26.50;55.70
12408;DHT22;6268;48.188;17.134;2022-09-01T14:15:39;26.50;55.40
12408;DHT22;6268;48.188;17.134;2022-09-01T14:18:08;26.50;55.70
12408;DHT22;6268;48.188;17.134;2022-09-01T14:20:38;26.40;55.50
12408;DHT22;6268;48.188;17.134;2022-09-01T14:23:10;26.40;55.00
12408;DHT22;6268;48.188;17.134;2022-09-01T14:25:42;26.40;55.20
12408;DHT22;6268;48.188;17.134;2022-09-01T14:28:15;26.40;55.70
12408;DHT22;6268;48.188;17.134;2022-09-01T14:30:47;26.20;55.40
12408;DHT22;6268;48.188;17.134;2022-09-01T14:33:19;26.20;55.50
12408;DHT22;6268;48.188;17.134;2022-09-01T14:35:50;26.10;55.50
12408;DHT22;6268;48.188;17.134;2022-09-01T14:38:20;26.00;56.40
12408;DHT22;6268;48.188;17.134;2022-09-01T14:40:49;26.00;55.70
12408;DHT22;6268;48.188;17.134;2022-09-01T14:43:22;26.10;56.20
12408;DHT22;6268;48.188;17.134;2022-09-01T14:46:02;26.10;56.40
12408;DHT22;6268;48.188;17.134;2022-09-01T14:48:33;26.10;56.40
12408;DHT22;6268;48.188;17.134;2022-09-01T14:51:02;26.20;56.20
12408;DHT22;6268;48.188;17.134;2022-09-01T14:53:31;26.20;56.00
12408;DHT22;6268;48.188;17.134;2022-09-01T14:56:01;26.20;56.00
12408;DHT22;6268;48.188;17.134;2022-09-01T14:58:32;26.20;55.90
12408;DHT22;6268;48.188;17.134;2022-09-01T15:01:01;26.10;55.80
12408;DHT22;6268;48.188;17.134;2022-09-01T15:03:50;26.10;56.20
12408;DHT22;6268;48.188;17.134;2022-09-01T15:06:20;26.10;55.70
12408;DHT22;6268;48.188;17.134;2022-09-01T15:08:50;26.20;56.40
12408;DHT22;6268;48.188;17.134;2022-09-01T15:11:19;26.20;56.40
12408;DHT22;6268;48.188;17.134;2022-09-01T15:13:49;26.30;55.80
12408;DHT22;6268;48.188;17.134;2022-09-01T15:16:21;26.30;56.00
12408;DHT22;6268;48.188;17.134;2022-09-01T15:18:52;26.30;55.50
12408;DHT22;6268;48.188;17.134;2022-09-01T15:21:23;26.30;55.50
12408;DHT22;6268;48.188;17.134;2022-09-01T15:23:56;26.20;55.60
12408;DHT22;6268;48.188;17.134;2022-09-01T15:26:26;26.20;55.40
12408;DHT22;6268;48.188;17.134;2022-09-01T15:28:57;26.30;55.10
12408;DHT22;6268;48.188;17.134;2022-09-01T15:31:28;26.20;55.20
12408;DHT22;6268;48.188;17.134;2022-09-01T15:34:01;26.20;54.90
12408;DHT22;6268;48.188;17.134;2022-09-01T15:36:34;26.20;54.80
12408;DHT22;6268;48.188;17.134;2022-09-01T15:39:06;26.10;54.40
12408;DHT22;6268;48.188;17.134;2022-09-01T15:41:37;26.10;54.30
12408;DHT22;6268;48.188;17.134;2022-09-01T15:44:07;26.10;54.40
12408;DHT22;6268;48.188;17.134;2022-09-01T15:46:37;26.00;54.20
12408;DHT22;6268;48.188;17.134;2022-09-01T15:49:09;25.90;53.80
12408;DHT22;6268;48.188;17.134;2022-09-01T15:51:39;25.90;54.30
12408;DHT22;6268;48.188;17.134;2022-09-01T15:54:10;25.90;54.50
12408;DHT22;6268;48.188;17.134;2022-09-01T15:56:40;25.90;54.70
12408;DHT22;6268;48.188;17.134;2022-09-01T15:59:12;25.80;54.50
12408;DHT22;6268;48.188;17.134;2022-09-01T16:01:44;25.80;54.60
12408;DHT22;6268;48.188;17.134;2022-09-01T16:04:14;25.70;54.20
12408;DHT22;6268;48.188;17.134;2022-09-01T16:06:50;25.60;54.90
12408;DHT22;6268;48.188;17.134;2022-09-01T16:09:20;25.50;54.60
12408;DHT22;6268;48.188;17.134;2022-09-01T16:11:49;25.30;54.70
12408;DHT22;6268;48.188;17.134;2022-09-01T16:14:19;25.30;54.90
12408;DHT22;6268;48.188;17.134;2022-09-01T16:16:57;25.30;54.00
12408;DHT22;6268;48.188;17.134;2022-09-01T16:19:40;25.30;53.90
12408;DHT22;6268;48.188;17.134;2022-09-01T16:22:22;25.20;55.10
12408;DHT22;6268;48.188;17.134;2022-09-01T16:24:58;25.20;54.00
12408;DHT22;6268;48.188;17.134;2022-09-01T16:27:32;25.20;53.80